Time;durP1;ratioP1;P1;durP2;ratioP2;P2;SDS_P1;SDS_P2;PMS_P1;PMS_P2;Temp;Humidity;BMP_temperature;BMP_pressure;BME280_temperature;BME280_humidity;BME280_pressure;Samples;Min_cycle;Max_cycle;Signal;HPM_P1;HPM_P2
2022/07/31 00:00:43;;;;;;;3.25;0.73;;;;;;;20.21;98.75;100702.22;5024174;28;20029;-68
2022/07/31 00:03:09;;;;;;;2.85;0.57;;;;;;;20.16;100.00;100704.63;5008285;28;20450;-67
2022/07/31 00:05:35;;;;;;;0.70;0.57;;;;;;;20.10;100.00;100702.78;5001748;28;20171;-68
2022/07/31 00:08:01;;;;;;;3.58;0.60;;;;;;;20.03;100.00;100704.59;5001812;28;20029;-67
2022/07/31 00:10:27;;;;;;;2.15;0.77;;;;;;;19.99;100.00;100703.38;5015309;28;20394;-69
2022/07/31 00:12:53;;;;;;;1.05;0.52;;;;;;;19.94;100.00;100689.94;5012114;28;20614;-68
2022/07/31 00:15:19;;;;;;;2.30;0.88;;;;;;;19.93;100.00;100695.44;5012620;28;20116;-69
2022/07/31 00:17:45;;;;;;;4.53;0.50;;;;;;;19.84;100.00;100698.28;5017404;28;20125;-68
2022/07/31 00:20:13;;;;;;;1.23;0.60;;;;;;;19.83;100.00;100690.53;5017720;28;20025;-67
2022/07/31 00:22:43;;;;;;;1.13;0.40;;;;;;;19.85;100.00;100688.47;5027471;28;20037;-69
2022/07/31 00:25:10;;;;;;;1.80;0.63;;;;;;;19.88;100.00;100688.09;5022269;28;20033;-67
2022/07/31 00:27:36;;;;;;;1.92;0.60;;;;;;;19.87;100.00;100691.75;5010376;28;20039;-68
2022/07/31 00:30:02;;;;;;;1.60;0.50;;;;;;;19.86;100.00;100695.41;5008469;28;20427;-68
2022/07/31 00:32:27;;;;;;;1.05;0.73;;;;;;;19.82;100.00;100691.56;5025994;28;20545;-68
2022/07/31 00:34:53;;;;;;;0.77;0.45;;;;;;;19.79;100.00;100700.69;5020713;28;20121;-68
2022/07/31 00:37:18;;;;;;;3.15;0.77;;;;;;;19.81;100.00;100697.84;5007429;28;20026;-68
2022/07/31 00:39:44;;;;;;;0.90;0.50;;;;;;;19.84;99.87;100694.81;4996231;28;20051;-69
2022/07/31 00:42:36;;;;;;;0.88;0.60;;;;;;;19.79;95.36;100707.81;4988225;28;20486;-68
2022/07/31 00:45:02;;;;;;;0.70;0.45;;;;;;;19.81;100.00;100703.16;4983038;28;20053;-68
2022/07/31 00:47:27;;;;;;;1.85;0.65;;;;;;;19.71;100.00;100708.00;4998661;28;20125;-67
2022/07/31 00:49:53;;;;;;;1.13;0.60;;;;;;;19.67;100.00;100701.47;4990026;28;20580;-68
2022/07/31 00:52:19;;;;;;;2.55;0.82;;;;;;;19.66;100.00;100705.94;4996996;28;20066;-67
2022/07/31 00:54:45;;;;;;;1.88;0.60;;;;;;;19.63;100.00;100700.22;5007286;28;20034;-68
2022/07/31 00:57:10;;;;;;;2.00;0.60;;;;;;;19.61;100.00;100702.25;4992027;28;20550;-64
2022/07/31 00:59:36;;;;;;;0.90;0.50;;;;;;;19.63;100.00;100692.31;4989722;28;20037;-67
2022/07/31 01:02:02;;;;;;;1.00;0.57;;;;;;;19.64;100.00;100700.03;4988674;28;20352;-67
2022/07/31 01:04:27;;;;;;;5.68;0.50;;;;;;;19.64;100.00;100704.50;4992576;28;20468;-67
2022/07/31 01:06:54;;;;;;;1.02;0.52;;;;;;;19.64;100.00;100699.22;5003558;28;20034;-67
2022/07/31 01:09:19;;;;;;;0.85;0.40;;;;;;;19.71;99.95;100694.78;5005331;28;20084;-68
2022/07/31 01:12:15;;;;;;;2.70;1.02;;;;;;;19.67;97.36;100696.19;4987948;28;20038;-67
2022/07/31 01:14:46;;;;;;;0.50;0.40;;;;;;;19.71;98.60;100695.59;4995195;28;20030;-68
2022/07/31 01:17:14;;;;;;;2.45;0.55;;;;;;;19.72;100.00;100696.41;5001745;28;20066;-68
2022/07/31 01:19:43;;;;;;;1.48;0.40;;;;;;;19.57;100.00;100693.91;4988531;28;20074;-69
2022/07/31 01:22:46;;;;;;;1.13;0.50;;;;;;;19.38;98.96;100700.69;4973526;28;20829;-68
2022/07/31 01:25:43;;;;;;;8.20;0.70;;;;;;;19.25;100.00;100689.25;5002421;28;20039;-67
2022/07/31 01:28:08;;;;;;;1.58;0.73;;;;;;;19.29;100.00;100693.97;4985739;28;20518;-68
2022/07/31 01:30:59;;;;;;;3.05;0.60;;;;;;;19.26;98.94;100694.34;5005453;28;20041;-68
2022/07/31 01:33:29;;;;;;;2.97;0.40;;;;;;;19.38;100.00;100702.50;4994074;28;20061;-69
2022/07/31 01:36:06;;;;;;;0.90;0.52;;;;;;;19.42;100.00;100701.94;4994241;28;20041;-69
2022/07/31 01:38:37;;;;;;;2.15;0.57;;;;;;;19.45;100.00;100704.19;4973062;28;20041;-67
2022/07/31 01:41:09;;;;;;;1.92;0.40;;;;;;;19.53;99.72;100697.94;5007357;28;20034;-67
2022/07/31 01:43:38;;;;;;;2.55;0.50;;;;;;;19.47;100.00;100702.16;5016604;28;20033;-68
2022/07/31 01:46:06;;;;;;;3.28;0.70;;;;;;;19.43;100.00;100692.19;5030091;28;20079;-69
2022/07/31 01:48:32;;;;;;;1.27;0.50;;;;;;;19.35;100.00;100697.66;5005310;28;20551;-68
2022/07/31 01:51:01;;;;;;;0.77;0.50;;;;;;;19.30;100.00;100700.06;5028674;28;20044;-66
2022/07/31 01:53:30;;;;;;;2.45;0.63;;;;;;;19.43;100.00;100693.00;4998432;28;20115;-67
2022/07/31 01:55:57;;;;;;;3.55;0.60;;;;;;;19.53;100.00;100703.22;5000383;28;20045;-63
2022/07/31 01:58:25;;;;;;;1.92;0.82;;;;;;;19.53;99.85;100690.84;5016052;28;20026;-68
2022/07/31 02:00:54;;;;;;;1.50;0.40;;;;;;;19.59;98.79;100689.22;5009745;28;20029;-67
2022/07/31 02:03:21;;;;;;;1.08;0.50;;;;;;;19.63;99.59;100694.94;5014556;28;20022;-68
2022/07/31 02:05:47;;;;;;;3.30;0.50;;;;;;;19.53;100.00;100698.75;5029033;28;20037;-67
2022/07/31 02:08:15;;;;;;;1.02;0.60;;;;;;;19.42;100.00;100709.84;5024205;28;20041;-67
2022/07/31 02:10:44;;;;;;;1.92;0.60;;;;;;;19.32;100.00;100705.97;5013305;28;20033;-66
2022/07/31 02:13:11;;;;;;;1.00;0.70;;;;;;;19.28;100.00;100705.53;5011680;28;20095;-68
2022/07/31 02:15:39;;;;;;;2.97;0.60;;;;;;;19.28;100.00;100710.81;5027804;28;20056;-66
2022/07/31 02:18:06;;;;;;;1.80;0.85;;;;;;;19.23;100.00;100698.19;5021808;28;20532;-68
2022/07/31 02:20:32;;;;;;;8.90;0.60;;;;;;;19.19;100.00;100706.72;5024298;28;20493;-67
2022/07/31 02:23:00;;;;;;;1.55;0.95;;;;;;;19.17;100.00;100706.91;5010103;28;20026;-67
2022/07/31 02:25:26;;;;;;;1.00;0.60;;;;;;;19.10;100.00;100710.50;4993034;28;20438;-67
2022/07/31 02:27:54;;;;;;;2.60;0.70;;;;;;;19.06;100.00;100703.97;5009034;28;20120;-67
2022/07/31 02:30:20;;;;;;;1.20;0.70;;;;;;;19.06;100.00;100703.97;5014966;28;20049;-69
2022/07/31 02:32:46;;;;;;;1.70;0.70;;;;;;;19.04;100.00;100701.53;5011457;28;20366;-67
2022/07/31 02:35:15;;;;;;;1.63;0.60;;;;;;;19.06;100.00;100688.13;5009697;28;20036;-67
2022/07/31 02:37:42;;;;;;;0.70;0.50;;;;;;;19.08;100.00;100692.22;5012907;28;20018;-66
2022/07/31 02:40:12;;;;;;;0.98;0.60;;;;;;;19.17;100.00;100690.25;5009424;28;20042;-68
2022/07/31 02:42:40;;;;;;;1.30;0.70;;;;;;;19.25;100.00;100687.44;5015104;28;20108;-68
2022/07/31 02:45:07;;;;;;;1.30;0.70;;;;;;;19.31;97.69;100689.31;5013750;28;20033;-67
2022/07/31 02:47:35;;;;;;;1.67;0.68;;;;;;;19.36;99.10;100691.34;5026605;28;20049;-67
2022/07/31 02:50:01;;;;;;;1.58;0.47;;;;;;;19.37;97.51;100691.16;5025017;28;20451;-66
2022/07/31 02:52:27;;;;;;;0.73;0.30;;;;;;;19.36;95.56;100689.53;5023335;28;20113;-66
2022/07/31 02:54:54;;;;;;;1.20;0.50;;;;;;;19.30;96.20;100692.13;5008430;28;20026;-66
2022/07/31 02:57:20;;;;;;;0.65;0.50;;;;;;;19.26;97.54;100681.16;5026582;28;20034;-68
2022/07/31 02:59:45;;;;;;;2.35;0.70;;;;;;;19.23;97.98;100692.09;5023017;28;20037;-67
2022/07/31 03:02:11;;;;;;;2.13;0.60;;;;;;;19.12;99.16;100693.47;5018715;28;20041;-65
2022/07/31 03:04:36;;;;;;;1.92;0.63;;;;;;;18.97;100.00;100695.38;5006534;28;20021;-66
2022/07/31 03:07:02;;;;;;;1.00;0.77;;;;;;;18.86;100.00;100693.31;5020501;28;20414;-66
2022/07/31 03:09:29;;;;;;;1.05;0.60;;;;;;;18.84;100.00;100690.88;4996597;28;20496;-66
2022/07/31 03:11:56;;;;;;;1.98;0.73;;;;;;;18.86;100.00;100694.13;4994974;28;20026;-66
2022/07/31 03:14:23;;;;;;;2.05;0.60;;;;;;;18.89;100.00;100692.94;5019093;28;20120;-67
2022/07/31 03:16:50;;;;;;;0.98;0.60;;;;;;;18.88;100.00;100694.75;5008757;28;20065;-66
2022/07/31 03:19:17;;;;;;;1.00;0.68;;;;;;;18.88;100.00;100689.47;5007151;28;20375;-66
2022/07/31 03:21:43;;;;;;;2.85;0.70;;;;;;;18.90;100.00;100689.28;5007243;28;20368;-66
2022/07/31 03:24:10;;;;;;;1.98;0.50;;;;;;;18.94;98.68;100690.50;5008925;28;20048;-67
2022/07/31 03:26:36;;;;;;;1.13;0.50;;;;;;;18.97;98.69;100698.03;4993681;28;20044;-65
2022/07/31 03:29:02;;;;;;;1.27;0.47;;;;;;;19.02;98.29;100697.44;5000520;28;20021;-68
2022/07/31 03:31:28;;;;;;;2.72;0.50;;;;;;;19.00;98.33;100691.56;5015273;28;20084;-67
2022/07/31 03:33:54;;;;;;;3.00;0.60;;;;;;;19.00;97.49;100700.28;5011801;28;20051;-66
2022/07/31 03:36:20;;;;;;;0.93;0.60;;;;;;;18.95;98.17;100707.16;5027879;28;20377;-69
2022/07/31 03:38:45;;;;;;;1.02;0.65;;;;;;;18.92;98.97;100711.00;5020439;28;20128;-68
2022/07/31 03:41:11;;;;;;;1.85;0.60;;;;;;;18.93;98.79;100704.69;5019191;28;20025;-66
2022/07/31 03:43:38;;;;;;;1.02;0.50;;;;;;;18.90;99.91;100694.56;5010593;28;20029;-69
2022/07/31 03:46:04;;;;;;;0.82;0.50;;;;;;;18.87;100.00;100693.13;5005567;28;20501;-66
2022/07/31 03:48:31;;;;;;;1.20;0.40;;;;;;;18.81;98.44;100701.81;5000736;28;20037;-67
2022/07/31 03:50:56;;;;;;;1.45;0.50;;;;;;;18.85;99.64;100696.97;5017319;28;20025;-66
2022/07/31 03:53:23;;;;;;;0.80;0.50;;;;;;;18.82;99.93;100702.63;5014102;28;20049;-68
2022/07/31 03:55:50;;;;;;;0.88;0.50;;;;;;;18.83;99.14;100706.91;5008735;28;20036;-67
2022/07/31 03:58:17;;;;;;;0.90;0.50;;;;;;;18.81;97.88;100707.09;5023859;28;20083;-64
2022/07/31 04:00:43;;;;;;;1.00;0.60;;;;;;;18.74;96.43;100700.94;5011241;28;20477;-68
2022/07/31 04:03:12;;;;;;;1.40;0.40;;;;;;;18.76;97.10;100696.28;5525152;23;21136;-83
2022/07/31 04:05:39;;;;;;;2.67;0.65;;;;;;;18.76;96.42;100709.47;5023748;28;20034;-83
2022/07/31 04:08:05;;;;;;;1.48;0.63;;;;;;;18.74;95.68;100689.56;5011360;28;20021;-84
2022/07/31 04:10:31;;;;;;;2.35;0.47;;;;;;;18.74;97.54;100689.56;5028208;28;20034;-83
2022/07/31 04:12:57;;;;;;;1.40;0.40;;;;;;;18.70;97.45;100691.78;5011534;28;20033;-85
2022/07/31 04:15:27;;;;;;;1.00;0.60;;;;;;;18.70;98.01;100694.41;5026109;28;20653;-84
2022/07/31 04:17:53;;;;;;;1.45;0.47;;;;;;;18.70;97.76;100699.69;5027365;28;20566;-84
2022/07/31 04:20:32;;;;;;;;;;;;;;;;;;;;;
2022/07/31 04:23:03;;;;;;;2.88;0.60;;;;;;;18.83;99.03;100709.53;5028711;28;20088;-85
2022/07/31 04:25:40;;;;;;;2.95;0.90;;;;;;;18.70;100.00;100712.88;5004110;28;20029;-86
2022/07/31 04:28:08;;;;;;;2.28;0.65;;;;;;;18.61;100.00;100713.22;5021963;28;20040;-85
2022/07/31 04:30:41;;;;;;;1.80;0.57;;;;;;;18.60;99.62;100707.13;5027997;28;20079;-84
2022/07/31 04:33:18;;;;;;;0.98;0.40;;;;;;;18.72;97.11;100705.59;5010969;28;20113;-85
2022/07/31 04:35:43;;;;;;;1.88;0.57;;;;;;;18.83;96.45;100699.78;5028040;28;20041;-86
2022/07/31 04:38:10;;;;;;;2.30;0.50;;;;;;;18.93;94.50;100699.41;5029476;28;20033;-84
2022/07/31 04:40:36;;;;;;;1.13;0.40;;;;;;;19.00;93.26;100694.19;5027466;28;20037;-84
2022/07/31 04:43:02;;;;;;;0.80;0.30;;;;;;;19.03;93.53;100699.09;5026306;28;20099;-84
2022/07/31 04:45:28;;;;;;;2.55;0.40;;;;;;;19.06;92.96;100703.97;5026878;28;20433;-85
2022/07/31 04:48:03;;;;;;;;;;;;;;;;;;;;;
2022/07/31 04:50:37;;;;;;;1.48;0.30;;;;;;;19.18;90.27;100719.09;5029644;28;20029;-85
2022/07/31 04:53:12;;;;;;;3.08;0.70;;;;;;;19.26;91.62;100719.94;5029131;28;20037;-85
2022/07/31 04:55:38;;;;;;;0.90;0.45;;;;;;;19.21;92.77;100725.81;5026560;28;20060;-84
2022/07/31 04:58:16;;;;;;;;;;;;;;;;;;;;;
2022/07/31 05:00:42;;;;;;;0.80;0.30;;;;;;;19.30;93.36;100731.75;5031287;28;20033;-84
2022/07/31 05:03:16;;;;;;;0.63;0.32;;;;;;;19.31;90.82;100726.28;5014126;28;20063;-83
2022/07/31 05:05:44;;;;;;;1.38;0.70;;;;;;;19.35;93.42;100722.25;5030404;28;20117;-83
2022/07/31 05:08:09;;;;;;;1.83;0.35;;;;;;;19.38;93.94;100729.75;5029744;28;20029;-84
2022/07/31 05:13:22;;;;;;;1.60;0.60;;;;;;;19.54;92.55;100720.72;5031891;28;20087;-83
2022/07/31 05:15:47;;;;;;;0.73;0.32;;;;;;;19.62;92.23;100725.03;5030550;28;20033;-80
2022/07/31 05:18:15;;;;;;;0.80;0.40;;;;;;;19.71;91.86;100719.38;5029404;28;20084;-83
2022/07/31 05:20:40;;;;;;;1.27;0.50;;;;;;;19.82;91.32;100718.00;5028180;28;20576;-83
2022/07/31 05:23:08;;;;;;;1.10;0.35;;;;;;;19.84;88.39;100713.31;5030441;28;20113;-83
2022/07/31 05:25:36;;;;;;;0.60;0.40;;;;;;;19.82;89.58;100705.59;5029190;28;20040;-85
2022/07/31 05:28:01;;;;;;;0.85;0.30;;;;;;;19.84;88.46;100710.69;5029261;28;20033;-87
2022/07/31 05:30:31;;;;;;;0.43;0.20;;;;;;;19.82;87.24;100715.34;5028892;28;20359;-86
2022/07/31 05:32:57;;;;;;;1.58;0.70;;;;;;;19.85;87.58;100717.56;5012569;28;20102;-85
2022/07/31 05:35:28;;;;;;;1.08;0.30;;;;;;;19.80;87.43;100722.66;5029691;28;20432;-85
2022/07/31 05:37:54;;;;;;;1.15;0.30;;;;;;;19.69;87.33;100705.53;5025789;28;20106;-85
2022/07/31 05:40:24;;;;;;;1.40;0.30;;;;;;;19.65;88.35;100700.84;5026320;28;20026;-84
2022/07/31 05:42:50;;;;;;;2.28;0.60;;;;;;;19.81;88.68;100708.44;5012186;28;20458;-84
2022/07/31 05:45:56;;;;;;;2.15;0.43;;;;;;;19.90;85.30;100709.84;5013143;28;20451;-84
2022/07/31 05:48:29;;;;;;;2.10;0.40;;;;;;;19.99;86.26;100719.25;4998039;28;20045;-84
2022/07/31 05:51:12;;;;;;;;;;;;;;;;;;;;;
2022/07/31 05:53:53;;;;;;;;;;;;;;;;;;;;;
2022/07/31 05:56:39;;;;;;;1.95;0.40;;;;;;;20.29;84.04;100716.25;5027278;28;20041;-84
2022/07/31 05:59:16;;;;;;;0.60;0.40;;;;;;;20.38;84.66;100725.63;5011100;28;20041;-85
2022/07/31 06:01:41;;;;;;;1.75;0.40;;;;;;;20.46;85.46;100712.22;5019983;28;20031;-83
2022/07/31 06:04:27;;;;;;;0.40;0.30;;;;;;;20.63;86.48;100718.75;5025704;28;20049;-84
2022/07/31 06:07:31;;;;;;;;;;;;;;;;;;;;;
2022/07/31 06:10:03;;;;;;;0.60;0.38;;;;;;;20.72;85.97;100722.81;5017216;28;19923;-83
2022/07/31 06:12:38;;;;;;;0.50;0.30;;;;;;;20.86;82.39;100727.06;4998037;28;20117;-83
2022/07/31 06:15:04;;;;;;;1.53;0.40;;;;;;;20.98;84.54;100727.25;5031471;28;20576;-83
2022/07/31 06:17:29;;;;;;;0.40;0.30;;;;;;;21.13;83.40;100729.69;5012116;28;20128;-83
2022/07/31 06:20:06;;;;;;;0.90;0.30;;;;;;;21.18;78.20;100728.03;5030985;28;20036;-85
2022/07/31 06:23:15;;;;;;;0.70;0.28;;;;;;;21.26;80.43;100728.88;5030963;28;20029;-83
2022/07/31 06:25:40;;;;;;;2.00;0.30;;;;;;;21.41;80.21;100724.13;5027306;28;20033;-82
2022/07/31 06:28:06;;;;;;;1.00;0.30;;;;;;;21.56;78.43;100726.53;5011722;28;20124;-84
2022/07/31 06:30:33;;;;;;;0.60;0.22;;;;;;;21.68;76.32;100728.31;5030069;28;20040;-84
2022/07/31 06:33:01;;;;;;;0.90;0.20;;;;;;;21.93;76.50;100725.72;5011669;28;20038;-83
2022/07/31 06:35:30;;;;;;;1.48;0.15;;;;;;;22.13;76.49;100717.69;5013143;28;20460;-83
2022/07/31 06:37:58;;;;;;;0.82;0.20;;;;;;;22.24;76.04;100721.47;5010924;28;20365;-83
2022/07/31 06:40:24;;;;;;;0.70;0.20;;;;;;;22.47;75.68;100719.06;5008065;28;20494;-83
2022/07/31 06:42:49;;;;;;;0.82;0.20;;;;;;;22.63;74.27;100715.06;4992844;28;20033;-84
2022/07/31 06:45:15;;;;;;;0.63;0.20;;;;;;;22.72;74.20;100711.91;4992771;28;20029;-82
2022/07/31 06:47:40;;;;;;;2.53;0.30;;;;;;;22.75;73.54;100714.13;5021073;28;20112;-83
2022/07/31 06:50:07;;;;;;;0.50;0.20;;;;;;;22.96;74.31;100706.81;5030009;28;20025;-84
2022/07/31 06:52:50;;;;;;;0.80;0.30;;;;;;;23.14;69.12;100705.00;5016816;28;20025;-84
2022/07/31 06:55:36;;;;;;;0.95;0.30;;;;;;;23.23;69.71;100704.66;5032955;28;20034;-84
2022/07/31 06:58:05;;;;;;;0.93;0.20;;;;;;;23.34;73.82;100707.41;5013789;28;20033;-84
2022/07/31 07:00:31;;;;;;;0.47;0.20;;;;;;;23.50;74.06;100712.13;5014479;28;20029;-85
2022/07/31 07:02:56;;;;;;;2.40;1.00;;;;;;;23.44;73.84;100707.69;5009852;28;20336;-83
2022/07/31 07:05:22;;;;;;;1.10;0.30;;;;;;;23.53;73.84;100705.59;5029521;28;20124;-83
2022/07/31 07:07:47;;;;;;;1.17;0.20;;;;;;;23.64;73.34;100709.31;5023112;28;20100;-84
2022/07/31 07:10:13;;;;;;;2.10;0.25;;;;;;;23.68;73.45;100713.16;5009043;28;20030;-84
2022/07/31 07:12:38;;;;;;;0.80;0.20;;;;;;;23.71;72.31;100708.19;5011789;28;20178;-83
2022/07/31 07:15:04;;;;;;;0.93;0.30;;;;;;;23.74;72.37;100701.63;5012066;28;20033;-84
2022/07/31 07:17:30;;;;;;;4.47;0.38;;;;;;;23.90;72.50;100695.66;5009199;28;20034;-85
2022/07/31 07:19:55;;;;;;;2.63;0.20;;;;;;;24.05;71.38;100692.59;5027625;28;20030;-84
2022/07/31 07:22:21;;;;;;;1.88;0.30;;;;;;;24.11;70.72;100692.47;5024141;28;20029;-86
2022/07/31 07:24:47;;;;;;;0.40;0.20;;;;;;;24.22;70.40;100698.06;5008054;28;20033;-85
2022/07/31 07:27:12;;;;;;;0.57;0.20;;;;;;;24.35;70.67;100692.56;5010120;28;20420;-83
2022/07/31 07:29:37;;;;;;;3.45;0.30;;;;;;;24.60;70.49;100693.16;4994871;28;20037;-85
2022/07/31 07:32:16;;;;;;;;;;;;;;;;;;;;;
2022/07/31 07:37:15;;;;;;;0.77;0.30;;;;;;;24.84;68.26;100693.16;5026576;28;20584;-60
2022/07/31 07:39:40;;;;;;;2.00;0.20;;;;;;;24.97;67.53;100690.28;5022117;28;20049;-60
2022/07/31 07:42:06;;;;;;;1.25;0.20;;;;;;;25.14;66.05;100688.50;5022202;28;20040;-60
2022/07/31 07:44:31;;;;;;;0.90;0.20;;;;;;;25.28;65.73;100681.06;5026057;28;20034;-61
2022/07/31 07:46:57;;;;;;;0.50;0.20;;;;;;;25.32;64.98;100683.03;5032012;28;20037;-62
2022/07/31 07:49:22;;;;;;;1.42;0.20;;;;;;;25.36;64.85;100678.84;5028904;28;20025;-63
2022/07/31 07:51:48;;;;;;;1.08;0.55;;;;;;;25.49;63.69;100671.63;5027396;28;20029;-60
2022/07/31 07:54:14;;;;;;;0.93;0.30;;;;;;;25.60;63.37;100668.88;5026635;28;20786;-63
2022/07/31 07:56:39;;;;;;;1.85;0.40;;;;;;;25.78;63.67;100667.91;5025972;28;20037;-63
2022/07/31 07:59:05;;;;;;;0.47;0.20;;;;;;;26.19;63.22;100655.25;5028176;28;20039;-62
2022/07/31 08:01:30;;;;;;;0.93;0.22;;;;;;;26.41;62.32;100664.19;5027988;28;20392;-60
2022/07/31 08:03:56;;;;;;;0.65;0.20;;;;;;;26.45;61.96;100659.97;5024792;28;20052;-63
2022/07/31 08:06:39;;;;;;;0.57;0.20;;;;;;;26.43;55.83;100662.88;5022292;28;20116;-63
2022/07/31 08:09:04;;;;;;;0.95;0.20;;;;;;;26.44;60.96;100653.00;5024910;28;20099;-61
2022/07/31 08:11:30;;;;;;;1.00;0.20;;;;;;;26.48;60.28;100651.44;5024295;28;20562;-62
2022/07/31 08:13:55;;;;;;;0.28;0.20;;;;;;;26.74;60.46;100645.41;5005615;28;20025;-61
2022/07/31 08:16:21;;;;;;;0.57;0.20;;;;;;;27.08;59.44;100650.69;5026310;28;20503;-63
2022/07/31 08:18:48;;;;;;;0.77;0.28;;;;;;;27.04;58.40;100647.69;5027803;28;20385;-60
2022/07/31 08:21:14;;;;;;;0.90;0.20;;;;;;;27.21;58.41;100642.28;5027678;28;20041;-62
2022/07/31 08:23:39;;;;;;;1.58;0.10;;;;;;;27.48;57.53;100646.84;5025764;28;20018;-65
2022/07/31 08:26:07;;;;;;;0.70;0.20;;;;;;;27.52;57.10;100640.75;5025611;28;20036;-60
2022/07/31 08:28:33;;;;;;;1.25;0.20;;;;;;;27.72;55.62;100640.19;5007928;28;20025;-61
2022/07/31 08:30:59;;;;;;;0.50;0.20;;;;;;;27.61;56.09;100643.81;5025503;28;20067;-63
2022/07/31 08:33:24;;;;;;;0.50;0.20;;;;;;;27.81;57.08;100645.88;5027635;28;20068;-63
2022/07/31 08:35:50;;;;;;;1.50;0.20;;;;;;;27.81;55.93;100645.88;5017991;28;20097;-63
2022/07/31 08:38:17;;;;;;;1.33;0.20;;;;;;;27.88;56.60;100652.66;5006232;28;20030;-64
2022/07/31 08:40:45;;;;;;;1.20;0.20;;;;;;;28.06;55.61;100638.06;5005806;28;20021;-62
2022/07/31 08:43:12;;;;;;;0.47;0.20;;;;;;;28.19;55.32;100640.31;5005914;28;20030;-63
2022/07/31 08:45:40;;;;;;;0.63;0.17;;;;;;;28.44;54.84;100630.84;5017888;28;20028;-64
2022/07/31 08:48:07;;;;;;;0.30;0.10;;;;;;;28.57;54.25;100623.16;5000877;28;20056;-65
2022/07/31 08:50:37;;;;;;;1.85;0.20;;;;;;;28.76;53.25;100630.78;5008070;28;20567;-63
2022/07/31 08:53:03;;;;;;;0.80;0.20;;;;;;;28.93;52.37;100634.06;5006812;28;20102;-62
2022/07/31 08:55:30;;;;;;;0.50;0.20;;;;;;;29.06;52.19;100630.91;5000805;28;20038;-63
2022/07/31 08:57:56;;;;;;;0.30;0.20;;;;;;;29.14;53.41;100633.09;5010133;28;20112;-61
2022/07/31 09:00:21;;;;;;;1.10;0.20;;;;;;;29.15;52.83;100634.72;5016874;28;20485;-63
2022/07/31 09:02:48;;;;;;;0.38;0.13;;;;;;;29.10;52.30;100641.94;5001641;28;20069;-61
2022/07/31 09:05:19;;;;;;;0.35;0.10;;;;;;;29.24;52.01;100637.69;4994405;28;20034;-63
2022/07/31 09:07:44;;;;;;;0.70;0.10;;;;;;;29.05;49.91;100640.84;5007866;28;20045;-61
2022/07/31 09:10:27;;;;;;;0.75;0.20;;;;;;;28.73;47.87;100627.53;5007208;28;20034;-64
2022/07/31 09:12:54;;;;;;;0.20;0.10;;;;;;;28.71;51.59;100624.31;5005837;28;20184;-62
2022/07/31 09:15:23;;;;;;;2.58;0.20;;;;;;;28.85;51.54;100618.47;5008201;28;20030;-63
2022/07/31 09:17:49;;;;;;;1.30;0.10;;;;;;;29.09;51.21;100619.66;5014859;28;20033;-64
2022/07/31 09:20:28;;;;;;;2.10;0.20;;;;;;;29.05;46.23;100611.34;5003321;28;20125;-64
2022/07/31 09:23:07;;;;;;;0.30;0.20;;;;;;;29.01;45.90;100618.28;4997673;28;20053;-64
2022/07/31 09:25:33;;;;;;;0.30;0.10;;;;;;;29.22;51.19;100621.06;5002188;28;20113;-63
2022/07/31 09:28:04;;;;;;;0.40;0.15;;;;;;;29.38;50.69;100612.75;5005642;28;20553;-63
2022/07/31 09:30:30;;;;;;;0.30;0.30;;;;;;;29.53;51.13;100613.88;5004439;28;20037;-62
2022/07/31 09:33:14;;;;;;;0.30;0.10;;;;;;;29.57;47.75;100604.22;5005601;28;20092;-61
2022/07/31 09:35:51;;;;;;;0.50;0.20;;;;;;;29.60;49.52;100598.34;5013611;28;20045;-61
2022/07/31 09:38:17;;;;;;;0.50;0.20;;;;;;;29.77;50.75;100606.13;5027564;28;20389;-62
2022/07/31 09:40:43;;;;;;;2.05;0.20;;;;;;;29.43;49.86;100603.94;5025539;28;20044;-61
2022/07/31 09:43:16;;;;;;;1.40;0.10;;;;;;;29.43;48.60;100592.41;5022547;28;20038;-62
2022/07/31 09:45:48;;;;;;;0.43;0.20;;;;;;;29.63;50.46;100597.81;5029948;28;20058;-61
2022/07/31 09:48:13;;;;;;;0.73;0.20;;;;;;;29.68;50.36;100590.56;5030269;28;20030;-61
2022/07/31 09:51:03;;;;;;;0.30;0.10;;;;;;;29.82;48.16;100582.75;5030356;28;20079;-64
2022/07/31 09:53:49;;;;;;;0.35;0.20;;;;;;;29.90;47.69;100590.28;5030083;28;20487;-61
2022/07/31 09:56:14;;;;;;;1.42;0.20;;;;;;;29.97;51.33;100593.50;5028903;28;20362;-61
2022/07/31 09:58:41;;;;;;;0.52;0.20;;;;;;;30.07;51.05;100587.34;5009632;28;20080;-63
2022/07/31 10:01:11;;;;;;;4.90;0.28;;;;;;;30.20;50.32;100583.31;5009530;28;20033;-63
2022/07/31 10:03:38;;;;;;;1.98;0.20;;;;;;;30.25;51.46;100584.06;5028950;28;20044;-63
2022/07/31 10:06:12;;;;;;;0.20;0.10;;;;;;;30.36;49.88;100582.16;5028863;28;20544;-63
2022/07/31 10:08:40;;;;;;;0.75;0.10;;;;;;;30.45;49.74;100574.34;5029135;28;20116;-61
2022/07/31 10:11:06;;;;;;;1.17;0.17;;;;;;;30.60;49.08;100582.41;5028963;28;20033;-61
2022/07/31 10:13:37;;;;;;;0.43;0.15;;;;;;;30.62;48.62;100575.69;5010004;28;20147;-63
2022/07/31 10:16:04;;;;;;;0.60;0.20;;;;;;;30.15;45.23;100577.94;5029297;28;20087;-64
2022/07/31 10:18:33;;;;;;;0.30;0.20;;;;;;;29.62;48.51;100583.56;5029838;28;20044;-63
2022/07/31 10:21:05;;;;;;;2.05;0.20;;;;;;;29.73;49.59;100576.34;5029912;28;20025;-63
2022/07/31 10:23:32;;;;;;;2.47;0.20;;;;;;;29.91;50.55;100573.09;5029976;28;20505;-61
2022/07/31 10:26:00;;;;;;;0.63;0.20;;;;;;;30.03;49.87;100572.84;5029486;28;20120;-61
2022/07/31 10:28:28;;;;;;;1.15;0.20;;;;;;;30.28;48.57;100566.59;5010714;28;20030;-61
2022/07/31 10:30:55;;;;;;;0.40;0.20;;;;;;;30.30;48.66;100567.13;5029876;28;20092;-60
2022/07/31 10:33:21;;;;;;;1.58;0.10;;;;;;;30.27;48.01;100564.97;5029117;28;20238;-62
2022/07/31 10:36:00;;;;;;;0.40;0.20;;;;;;;30.38;47.13;100572.75;5029508;28;20049;-63
2022/07/31 10:38:49;;;;;;;0.30;0.20;;;;;;;30.36;46.96;100563.34;5029362;28;20026;-62
2022/07/31 10:41:37;;;;;;;0.30;0.20;;;;;;;29.98;44.50;100568.25;5018115;28;20049;-59
2022/07/31 10:44:22;;;;;;;0.75;0.20;;;;;;;29.81;47.63;100567.72;5028402;28;20033;-59
2022/07/31 10:46:47;;;;;;;1.33;0.20;;;;;;;29.47;49.38;100566.63;5028972;28;20045;-63
2022/07/31 10:49:13;;;;;;;0.88;0.20;;;;;;;29.46;49.49;100565.03;5030118;28;20551;-63
2022/07/31 10:51:49;;;;;;;0.82;0.20;;;;;;;29.40;47.00;100569.56;5029515;28;20041;-63
2022/07/31 10:54:15;;;;;;;2.30;0.15;;;;;;;29.67;48.87;100570.16;5027873;28;20022;-61
2022/07/31 10:56:42;;;;;;;0.20;0.10;;;;;;;29.66;49.21;100565.84;5029190;28;20036;-63
2022/07/31 10:59:09;;;;;;;0.30;0.10;;;;;;;29.76;49.27;100553.50;5028804;28;20029;-65
2022/07/31 11:01:45;;;;;;;1.55;0.13;;;;;;;29.74;46.88;100551.09;5028712;28;20073;-63
2022/07/31 11:04:11;;;;;;;1.25;0.20;;;;;;;29.79;48.67;100552.94;5026902;28;20029;-62
2022/07/31 11:06:42;;;;;;;0.93;0.45;;;;;;;29.86;47.67;100548.91;5024501;28;20095;-66
2022/07/31 11:09:07;;;;;;;0.85;0.20;;;;;;;29.91;46.96;100554.28;5010712;28;20037;-62
2022/07/31 11:11:35;;;;;;;0.40;0.20;;;;;;;30.10;46.78;100559.94;5027894;28;20409;-63
2022/07/31 11:14:01;;;;;;;0.25;0.10;;;;;;;29.70;45.91;100550.03;5028817;28;20040;-61
2022/07/31 11:16:28;;;;;;;1.23;0.20;;;;;;;29.62;46.60;100546.00;5009198;28;20101;-62
2022/07/31 11:19:02;;;;;;;0.68;0.22;;;;;;;29.93;45.12;100540.59;5028808;28;20064;-61
2022/07/31 11:21:34;;;;;;;1.33;0.10;;;;;;;29.99;46.02;100536.81;5027718;28;20029;-65
2022/07/31 11:24:01;;;;;;;3.78;0.20;;;;;;;29.97;45.69;100531.72;5028571;28;20035;-60
2022/07/31 11:26:26;;;;;;;0.52;0.20;;;;;;;29.91;45.52;100534.69;5028708;28;20033;-61
2022/07/31 11:28:52;;;;;;;1.42;0.22;;;;;;;29.99;45.69;100534.13;5028538;28;20033;-61
2022/07/31 11:31:18;;;;;;;2.75;0.20;;;;;;;30.07;47.09;100525.56;5028075;28;20068;-64
2022/07/31 11:33:46;;;;;;;1.27;0.20;;;;;;;29.94;45.02;100526.88;5026476;28;20024;-67
2022/07/31 11:36:18;;;;;;;0.40;0.15;;;;;;;29.81;44.44;100529.31;5028097;28;20045;-61
2022/07/31 11:38:48;;;;;;;1.15;0.20;;;;;;;29.81;45.66;100519.38;5029399;28;20420;-61
2022/07/31 11:41:15;;;;;;;1.15;0.13;;;;;;;29.96;45.62;100516.69;5028598;28;20056;-63
2022/07/31 11:43:45;;;;;;;0.20;0.10;;;;;;;30.02;45.39;100518.31;5029126;28;20026;-59
2022/07/31 11:46:12;;;;;;;1.65;0.20;;;;;;;30.12;46.31;100520.16;5027518;28;20071;-63